地図

経路データ

SID SEASON NUMBER BASIN SUBBASIN NAME ISO_TIME NATURE LAT LON WMO_WIND WMO_PRES WMO_AGENCY TRACK_TYPE DIST2LAND LANDFALL IFLAG USA_AGENCY USA_ATCF_ID USA_LAT USA_LON USA_RECORD USA_STATUS USA_WIND USA_PRES USA_SSHS USA_R34_NE USA_R34_SE USA_R34_SW USA_R34_NW USA_R50_NE USA_R50_SE USA_R50_SW USA_R50_NW USA_R64_NE USA_R64_SE USA_R64_SW USA_R64_NW USA_POCI USA_ROCI USA_RMW USA_EYE TOKYO_LAT TOKYO_LON TOKYO_GRADE TOKYO_WIND TOKYO_PRES TOKYO_R50_DIR TOKYO_R50_LONG TOKYO_R50_SHORT TOKYO_R30_DIR TOKYO_R30_LONG TOKYO_R30_SHORT TOKYO_LAND CMA_LAT CMA_LON CMA_CAT CMA_WIND CMA_PRES HKO_LAT HKO_LON HKO_CAT HKO_WIND HKO_PRES NEWDELHI_LAT NEWDELHI_LON NEWDELHI_GRADE NEWDELHI_WIND NEWDELHI_PRES NEWDELHI_CI NEWDELHI_DP NEWDELHI_POCI REUNION_LAT REUNION_LON REUNION_TYPE REUNION_WIND REUNION_PRES REUNION_TNUM REUNION_CI REUNION_RMW REUNION_R34_NE REUNION_R34_SE REUNION_R34_SW REUNION_R34_NW REUNION_R50_NE REUNION_R50_SE REUNION_R50_SW REUNION_R50_NW REUNION_R64_NE REUNION_R64_SE REUNION_R64_SW REUNION_R64_NW BOM_LAT BOM_LON BOM_TYPE BOM_WIND BOM_PRES BOM_TNUM BOM_CI BOM_RMW BOM_R34_NE BOM_R34_SE BOM_R34_SW BOM_R34_NW BOM_R50_NE BOM_R50_SE BOM_R50_SW BOM_R50_NW BOM_R64_NE BOM_R64_SE BOM_R64_SW BOM_R64_NW BOM_ROCI BOM_POCI BOM_EYE BOM_POS_METHOD BOM_PRES_METHOD NADI_LAT NADI_LON NADI_CAT NADI_WIND NADI_PRES WELLINGTON_LAT WELLINGTON_LON WELLINGTON_WIND WELLINGTON_PRES DS824_LAT DS824_LON DS824_STAGE DS824_WIND DS824_PRES TD9636_LAT TD9636_LON TD9636_STAGE TD9636_WIND TD9636_PRES TD9635_LAT TD9635_LON TD9635_WIND TD9635_PRES TD9635_ROCI NEUMANN_LAT NEUMANN_LON NEUMANN_CLASS NEUMANN_WIND NEUMANN_PRES MLC_LAT MLC_LON MLC_CLASS MLC_WIND MLC_PRES USA_GUST BOM_GUST BOM_GUST_PER REUNION_GUST REUNION_GUST_PER USA_SEAHGT USA_SEARAD_NE USA_SEARAD_SE USA_SEARAD_SW USA_SEARAD_NW STORM_SPEED STORM_DIR
1924239N14312 1924 30 NA NA NOT_NAMED 1924-08-26 00:00:00 TS 13.7000 -48.0000 35 hurdat_atl main 1077 1042 O_____________ hurdat_atl AL041924 13.7000 -48.0000 TS 35 0 15 269
1924239N14312 1924 30 NA NA NOT_NAMED 1924-08-26 03:00:00 TS 13.6930 -48.7500 main 1038 1008 P_____________ AL041924 13.6930 -48.7500 TS 35 0 15 270
1924239N14312 1924 30 NA NA NOT_NAMED 1924-08-26 06:00:00 TS 13.7000 -49.5000 35 hurdat_atl main 1008 977 O_____________ hurdat_atl AL041924 13.7000 -49.5000 TS 35 0 15 272
1924239N14312 1924 30 NA NA NOT_NAMED 1924-08-26 09:00:00 TS 13.7348 -50.2500 main 972 951 P_____________ AL041924 13.7348 -50.2500 TS 35 0 15 274
1924239N14312 1924 30 NA NA NOT_NAMED 1924-08-26 12:00:00 TS 13.8000 -51.0000 35 hurdat_atl main 951 933 O_____________ hurdat_atl AL041924 13.8000 -51.0000 TS 35 0 15 276
1924239N14312 1924 30 NA NA NOT_NAMED 1924-08-26 15:00:00 TS 13.8773 -51.7501 main 933 922 P_____________ AL041924 13.8773 -51.7501 TS 37 0 15 278
1924239N14312 1924 30 NA NA NOT_NAMED 1924-08-26 18:00:00 TS 14.0000 -52.5000 40 hurdat_atl main 926 922 O_____________ hurdat_atl AL041924 14.0000 -52.5000 TS 40 0 15 282
1924239N14312 1924 30 NA NA NOT_NAMED 1924-08-26 21:00:00 TS 14.1773 -53.2501 main 923 865 P_____________ AL041924 14.1773 -53.2501 TS 42 0 15 285
1924239N14312 1924 30 NA NA NOT_NAMED 1924-08-27 00:00:00 TS 14.4000 -54.0000 45 hurdat_atl main 865 811 O_____________ hurdat_atl AL041924 14.4000 -54.0000 TS 45 0 15 288
1924239N14312 1924 30 NA NA NOT_NAMED 1924-08-27 03:00:00 TS 14.6498 -54.7500 main 802 759 P_____________ AL041924 14.6498 -54.7500 TS 50 0 15 289
1924239N14312 1924 30 NA NA NOT_NAMED 1924-08-27 06:00:00 TS 14.9000 -55.5000 55 hurdat_atl main 759 716 O_____________ hurdat_atl AL041924 14.9000 -55.5000 TS 55 0 15 288
1924239N14312 1924 30 NA NA NOT_NAMED 1924-08-27 09:00:00 TS 15.1147 -56.2427 main 716 673 P_____________ AL041924 15.1147 -56.2427 TS 60 0 15 285
1924239N14312 1924 30 NA NA NOT_NAMED 1924-08-27 12:00:00 TS 15.3000 -57.0000 65 hurdat_atl main 673 636 O_____________ hurdat_atl AL041924 15.3000 -57.0000 HU 65 1 15 282
1924239N14312 1924 30 NA NA NOT_NAMED 1924-08-27 15:00:00 TS 15.4423 -57.7929 main 630 606 P_____________ AL041924 15.4423 -57.7929 HU 70 1 16 281
1924239N14312 1924 30 NA NA NOT_NAMED 1924-08-27 18:00:00 TS 15.6000 -58.6000 75 hurdat_atl main 607 596 O_____________ hurdat_atl AL041924 15.6000 -58.6000 HU 75 1 16 284
1924239N14312 1924 30 NA NA NOT_NAMED 1924-08-27 21:00:00 TS 15.8347 -59.4000 main 596 596 P_____________ AL041924 15.8347 -59.4000 HU 80 1 16 288
1924239N14312 1924 30 NA NA NOT_NAMED 1924-08-28 00:00:00 TS 16.1000 -60.2000 85 hurdat_atl main 610 532 O_____________ hurdat_atl AL041924 16.1000 -60.2000 HU 85 2 17 288
1924239N14312 1924 30 NA CS NOT_NAMED 1924-08-28 03:00:00 TS 16.3500 -61.0301 main 528 441 P_____________ AL041924 16.3500 -61.0301 HU 90 2 16 288
1924239N14312 1924 30 NA CS NOT_NAMED 1924-08-28 06:00:00 TS 16.6000 -61.8000 95 965 hurdat_atl main 441 373 O_____________ hurdat_atl AL041924 16.6000 -61.8000 HU 95 965 2 15 290
1924239N14312 1924 30 NA CS NOT_NAMED 1924-08-28 09:00:00 TS 16.8498 -62.4601 main 364 301 P_____________ AL041924 16.8498 -62.4601 HU 95 2 13 294
1924239N14312 1924 30 NA CS NOT_NAMED 1924-08-28 12:00:00 TS 17.1000 -63.0000 95 hurdat_atl main 301 253 O_____________ hurdat_atl AL041924 17.1000 -63.0000 HU 95 2 11 298
1924239N14312 1924 30 NA CS NOT_NAMED 1924-08-28 15:00:00 TS 17.3498 -63.4452 main 253 201 P_____________ AL041924 17.3498 -63.4452 HU 95 2 9 303
1924239N14312 1924 30 NA CS NOT_NAMED 1924-08-28 18:00:00 TS 17.6000 -63.8000 95 hurdat_atl main 201 164 O_____________ hurdat_atl AL041924 17.6000 -63.8000 HU 95 2 8 308
1924239N14312 1924 30 NA CS NOT_NAMED 1924-08-28 21:00:00 TS 17.8574 -64.1226 main 162 127 P_____________ AL041924 17.8574 -64.1226 HU 95 2 8 311
1924239N14312 1924 30 NA CS NOT_NAMED 1924-08-29 00:00:00 TS 18.1000 -64.4000 95 hurdat_atl main 127 105 O_____________ hurdat_atl AL041924 18.1000 -64.4000 HU 95 2 7 311
1924239N14312 1924 30 NA CS NOT_NAMED 1924-08-29 03:00:00 TS 18.2999 -64.6577 main 95 74 P_____________ AL041924 18.2999 -64.6577 HU 95 2 6 310
1924239N14312 1924 30 NA CS NOT_NAMED 1924-08-29 06:00:00 TS 18.5000 -64.9000 95 967 hurdat_atl main 74 57 O_____________ hurdat_atl AL041924 18.5000 -64.9000 HU 95 967 2 6 314
1924239N14312 1924 30 NA CS NOT_NAMED 1924-08-29 09:00:00 TS 18.7425 -65.1500 main 53 53 P_____________ AL041924 18.7425 -65.1500 HU 95 2 7 317
1924239N14312 1924 30 NA NA NOT_NAMED 1924-08-29 12:00:00 TS 19.0000 -65.4000 95 hurdat_atl main 70 70 O_____________ hurdat_atl AL041924 19.0000 -65.4000 HU 95 2 7 317
1924239N14312 1924 30 NA NA NOT_NAMED 1924-08-29 15:00:00 TS 19.2500 -65.6575 main 100 89 P_____________ AL041924 19.2500 -65.6575 HU 95 2 7 317
1924239N14312 1924 30 NA NA NOT_NAMED 1924-08-29 18:00:00 TS 19.5000 -65.9000 95 hurdat_atl main 123 123 O_____________ hurdat_atl AL041924 19.5000 -65.9000 HU 95 2 7 320
1924239N14312 1924 30 NA NA NOT_NAMED 1924-08-29 21:00:00 TS 19.7499 -66.1076 main 145 145 P_____________ AL041924 19.7499 -66.1076 HU 92 2 6 323
1924239N14312 1924 30 NA NA NOT_NAMED 1924-08-30 00:00:00 TS 20.0000 -66.3000 90 hurdat_atl main 178 178 O_____________ hurdat_atl AL041924 20.0000 -66.3000 HU 90 2 6 323
1924239N14312 1924 30 NA NA NOT_NAMED 1924-08-30 03:00:00 TS 20.2500 -66.5075 main 212 201 P_____________ AL041924 20.2500 -66.5075 HU 90 2 6 323
1924239N14312 1924 30 NA NA NOT_NAMED 1924-08-30 06:00:00 TS 20.5000 -66.7000 90 hurdat_atl main 234 234 O_____________ hurdat_atl AL041924 20.5000 -66.7000 HU 90 2 6 327
1924239N14312 1924 30 NA NA NOT_NAMED 1924-08-30 09:00:00 TS 20.7650 -66.8650 main 268 268 P_____________ AL041924 20.7650 -66.8650 HU 90 2 6 331
1924239N14312 1924 30 NA NA NOT_NAMED 1924-08-30 12:00:00 TS 21.0000 -67.0000 90 hurdat_atl main 290 290 O_____________ hurdat_atl AL041924 21.0000 -67.0000 HU 90 2 5 331
1924239N14312 1924 30 NA NA NOT_NAMED 1924-08-30 15:00:00 TS 21.1725 -67.1076 main 310 305 P_____________ AL041924 21.1725 -67.1076 HU 90 2 4 329
1924239N14312 1924 30 NA NA NOT_NAMED 1924-08-30 18:00:00 TS 21.3000 -67.2000 90 hurdat_atl main 313 313 O_____________ hurdat_atl AL041924 21.3000 -67.2000 HU 90 2 3 323
1924239N14312 1924 30 NA NA NOT_NAMED 1924-08-30 21:00:00 TS 21.4150 -67.3000 main 314 314 P_____________ AL041924 21.4150 -67.3000 HU 90 2 3 317
1924239N14312 1924 30 NA NA NOT_NAMED 1924-08-31 00:00:00 TS 21.5000 -67.4000 90 hurdat_atl main 315 309 O_____________ hurdat_atl AL041924 21.5000 -67.4000 HU 90 2 2 306
1924239N14312 1924 30 NA NA NOT_NAMED 1924-08-31 03:00:00 TS 21.5500 -67.5000 main 318 309 P_____________ AL041924 21.5500 -67.5000 HU 90 2 2 299
1924239N14312 1924 30 NA NA NOT_NAMED 1924-08-31 06:00:00 TS 21.6000 -67.6000 90 hurdat_atl main 312 306 O_____________ hurdat_atl AL041924 21.6000 -67.6000 HU 90 2 2 308
1924239N14312 1924 30 NA NA NOT_NAMED 1924-08-31 09:00:00 TS 21.6925 -67.7000 main 315 315 P_____________ AL041924 21.6925 -67.7000 HU 90 2 3 317
1924239N14312 1924 30 NA NA NOT_NAMED 1924-08-31 12:00:00 TS 21.8000 -67.8000 90 hurdat_atl main 320 315 O_____________ hurdat_atl AL041924 21.8000 -67.8000 HU 90 2 3 316
1924239N14312 1924 30 NA NA NOT_NAMED 1924-08-31 15:00:00 TS 21.8925 -67.9075 main 325 320 P_____________ AL041924 21.8925 -67.9075 HU 90 2 3 317
1924239N14312 1924 30 NA NA NOT_NAMED 1924-08-31 18:00:00 TS 22.0000 -68.0000 90 hurdat_atl main 330 330 O_____________ hurdat_atl AL041924 22.0000 -68.0000 HU 90 2 3 331
1924239N14312 1924 30 NA NA NOT_NAMED 1924-08-31 21:00:00 TS 22.1425 -68.0575 main 337 337 P_____________ AL041924 22.1425 -68.0575 HU 90 2 3 344
1924239N14312 1924 30 NA NA NOT_NAMED 1924-09-01 00:00:00 TS 22.3000 -68.1000 90 hurdat_atl main 357 357 O_____________ hurdat_atl AL041924 22.3000 -68.1000 HU 90 2 3 344
1924239N14312 1924 30 NA NA NOT_NAMED 1924-09-01 03:00:00 TS 22.4425 -68.1500 main 364 364 P_____________ AL041924 22.4425 -68.1500 HU 90 2 3 344
1924239N14312 1924 30 NA NA NOT_NAMED 1924-09-01 06:00:00 TS 22.6000 -68.2000 90 hurdat_atl main 383 383 O_____________ hurdat_atl AL041924 22.6000 -68.2000 HU 90 2 3 345
1924239N14312 1924 30 NA NA NOT_NAMED 1924-09-01 09:00:00 TS 22.7775 -68.2500 main 398 398 P_____________ AL041924 22.7775 -68.2500 HU 90 2 4 348
1924239N14312 1924 30 NA NA NOT_NAMED 1924-09-01 12:00:00 TS 23.0000 -68.3000 90 hurdat_atl main 418 418 O_____________ hurdat_atl AL041924 23.0000 -68.3000 HU 90 2 5 350
1924239N14312 1924 30 NA NA NOT_NAMED 1924-09-01 15:00:00 TS 23.2775 -68.3500 main 445 445 P_____________ AL041924 23.2775 -68.3500 HU 90 2 6 352
1924239N14312 1924 30 NA NA NOT_NAMED 1924-09-01 18:00:00 TS 23.6000 -68.4000 90 hurdat_atl main 476 476 O_____________ hurdat_atl AL041924 23.6000 -68.4000 HU 90 2 7 352
1924239N14312 1924 30 NA NA NOT_NAMED 1924-09-01 21:00:00 TS 23.9275 -68.4500 main 505 505 P_____________ AL041924 23.9275 -68.4500 HU 90 2 7 353
1924239N14312 1924 30 NA NA NOT_NAMED 1924-09-02 00:00:00 TS 24.3000 -68.5000 90 hurdat_atl main 547 547 O_____________ hurdat_atl AL041924 24.3000 -68.5000 HU 90 2 8 354
1924239N14312 1924 30 NA NA NOT_NAMED 1924-09-02 03:00:00 TS 24.7200 -68.5500 main 585 585 P_____________ AL041924 24.7200 -68.5500 HU 90 2 9 355
1924239N14312 1924 30 NA NA NOT_NAMED 1924-09-02 06:00:00 TS 25.2000 -68.6000 90 hurdat_atl main 633 633 O_____________ hurdat_atl AL041924 25.2000 -68.6000 HU 90 2 10 355
1924239N14312 1924 30 NA NA NOT_NAMED 1924-09-02 09:00:00 TS 25.7275 -68.6500 main 667 667 P_____________ AL041924 25.7275 -68.6500 HU 87 2 11 355
1924239N14312 1924 30 NA NA NOT_NAMED 1924-09-02 12:00:00 TS 26.3000 -68.7000 85 hurdat_atl main 718 718 O_____________ hurdat_atl AL041924 26.3000 -68.7000 HU 85 2 12 356
1924239N14312 1924 30 NA NA NOT_NAMED 1924-09-02 15:00:00 TS 26.8775 -68.7501 main 766 766 P_____________ AL041924 26.8775 -68.7501 HU 85 2 12 356
1924239N14312 1924 30 NA NA NOT_NAMED 1924-09-02 18:00:00 TS 27.5000 -68.8000 85 hurdat_atl main 822 822 O_____________ hurdat_atl AL041924 27.5000 -68.8000 HU 85 2 13 355
1924239N14312 1924 30 NA NA NOT_NAMED 1924-09-02 21:00:00 TS 28.1700 -68.8647 main 884 884 P_____________ AL041924 28.1700 -68.8647 HU 85 2 14 356
1924239N14312 1924 30 NA NA NOT_NAMED 1924-09-03 00:00:00 TS 28.9000 -68.9000 85 hurdat_atl main 953 911 O_____________ hurdat_atl AL041924 28.9000 -68.9000 HU 85 2 15 359
1924239N14312 1924 30 NA NA NOT_NAMED 1924-09-03 03:00:00 TS 29.6775 -68.8799 main 904 854 P_____________ AL041924 29.6775 -68.8799 HU 82 1 16 3
1924239N14312 1924 30 NA NA NOT_NAMED 1924-09-03 06:00:00 TS 30.5000 -68.8000 80 hurdat_atl main 854 804 O_____________ hurdat_atl AL041924 30.5000 -68.8000 HU 80 1 17 6
1924239N14312 1924 30 NA NA NOT_NAMED 1924-09-03 09:00:00 TS 31.3275 -68.6796 main 804 758 P_____________ AL041924 31.3275 -68.6796 HU 80 1 17 9
1924239N14312 1924 30 NA NA NOT_NAMED 1924-09-03 12:00:00 TS 32.2000 -68.5000 80 hurdat_atl main 758 724 O_____________ hurdat_atl AL041924 32.2000 -68.5000 HU 80 1 18 10
1924239N14312 1924 30 NA NA NOT_NAMED 1924-09-03 15:00:00 TS 33.1123 -68.3009 main 724 706 P_____________ AL041924 33.1123 -68.3009 HU 80 1 20 12
1924239N14312 1924 30 NA NA NOT_NAMED 1924-09-03 18:00:00 TS 34.1000 -68.0000 80 hurdat_atl main 707 704 O_____________ hurdat_atl AL041924 34.1000 -68.0000 HU 80 1 22 17
1924239N14312 1924 30 NA NA NOT_NAMED 1924-09-03 21:00:00 TS 35.1702 -67.5377 main 725 661 P_____________ AL041924 35.1702 -67.5377 HU 77 1 24 20
1924239N14312 1924 30 NA NA NOT_NAMED 1924-09-04 00:00:00 ET 36.3000 -67.0000 75 hurdat_atl main 654 564 O_____________ hurdat_atl AL041924 36.3000 -67.0000 EX 75 -4 24 20
1924239N14312 1924 30 NA NA NOT_NAMED 1924-09-04 03:00:00 ET 37.4496 -66.5131 main 564 485 P_____________ AL041924 37.4496 -66.5131 EX 75 -4 24 19
1924239N14312 1924 30 NA NA NOT_NAMED 1924-09-04 06:00:00 ET 38.6000 -66.0000 75 hurdat_atl main 483 433 O_____________ hurdat_atl AL041924 38.6000 -66.0000 EX 75 -4 24 20
1924239N14312 1924 30 NA NA NOT_NAMED 1924-09-04 09:00:00 ET 39.7068 -65.4493 main 422 313 P_____________ AL041924 39.7068 -65.4493 EX 72 -4 24 23
1924239N14312 1924 30 NA NA NOT_NAMED 1924-09-04 12:00:00 ET 40.8000 -64.8000 70 hurdat_atl main 303 212 O_____________ hurdat_atl AL041924 40.8000 -64.8000 EX 70 -4 25 26
1924239N14312 1924 30 NA NA NOT_NAMED 1924-09-04 15:00:00 ET 41.9071 -64.0081 main 207 163 P_____________ AL041924 41.9071 -64.0081 EX 70 -4 25 30
1924239N14312 1924 30 NA NA NOT_NAMED 1924-09-04 18:00:00 ET 43.0000 -63.1000 70 hurdat_atl main 160 91 O_____________ hurdat_atl AL041924 43.0000 -63.1000 EX 70 -4 25 32
1924239N14312 1924 30 NA NA NOT_NAMED 1924-09-04 21:00:00 ET 44.0564 -62.1481 main 83 22 P_____________ AL041924 44.0564 -62.1481 EX 67 -4 25 34
1924239N14312 1924 30 NA NA NOT_NAMED 1924-09-05 00:00:00 ET 45.1000 -61.1000 65 hurdat_atl main 11 0 O_____________ hurdat_atl AL041924 45.1000 -61.1000 EX 65 -4 26 36
1924239N14312 1924 30 NA NA NOT_NAMED 1924-09-05 03:00:00 ET 46.1565 -59.9488 main 0 0 P_____________ AL041924 46.1565 -59.9488 EX 60 -4 27 38
1924239N14312 1924 30 NA NA NOT_NAMED 1924-09-05 06:00:00 ET 47.2000 -58.7000 55 hurdat_atl main 44 0 O_____________ hurdat_atl AL041924 47.2000 -58.7000 EX 55 -4 27 39
1924239N14312 1924 30 NA NA NOT_NAMED 1924-09-05 09:00:00 ET 48.2491 -57.4359 main 0 0 P_____________ AL041924 48.2491 -57.4359 EX 52 -4 27 42
1924239N14312 1924 30 NA NA NOT_NAMED 1924-09-05 12:00:00 ET 49.2000 -56.0000 50 hurdat_atl main 0 0 O_____________ hurdat_atl AL041924 49.2000 -56.0000 EX 50 -4 27 50
1924239N14312 1924 30 NA NA NOT_NAMED 1924-09-05 15:00:00 ET 49.9987 -54.2380 main 62 62 P_____________ AL041924 49.9987 -54.2380 EX 47 -4 27 59
1924239N14312 1924 30 NA NA NOT_NAMED 1924-09-05 18:00:00 ET 50.6000 -52.4000 45 hurdat_atl main 164 164 O_____________ hurdat_atl AL041924 50.6000 -52.4000 EX 45 -4 24 66
1924239N14312 1924 30 NA NA NOT_NAMED 1924-09-05 21:00:00 ET 50.9989 -50.7613 main 268 268 P_____________ AL041924 50.9989 -50.7613 EX 42 -4 21 71
1924239N14312 1924 30 NA NA NOT_NAMED 1924-09-06 00:00:00 ET 51.3000 -49.2000 40 hurdat_atl main 376 376 O_____________ hurdat_atl AL041924 51.3000 -49.2000 EX 40 -4 21 71
1924239N14312 1924 30 NA NA NOT_NAMED 1924-09-06 03:00:00 ET 51.6921 -47.6172 main 493 493 P_____________ AL041924 51.6921 -47.6172 EX 37 -4 21 71
1924239N14312 1924 30 NA NA NOT_NAMED 1924-09-06 06:00:00 ET 52.0000 -46.0000 35 hurdat_atl main 605 605 O_____________ hurdat_atl AL041924 52.0000 -46.0000 EX 35 -4 20 78
1924239N14312 1924 30 NA NA NOT_NAMED 1924-09-06 09:00:00 ET 52.1209 -44.3583 main 708 708 P_____________ AL041924 52.1209 -44.3583 EX 35 -4 21 87
1924239N14312 1924 30 NA NA NOT_NAMED 1924-09-06 12:00:00 ET 52.1000 -42.6000 35 hurdat_atl main 823 823 O_____________ hurdat_atl AL041924 52.1000 -42.6000 EX 35 -4 23 93
1924239N14312 1924 30 NA NA NOT_NAMED 1924-09-06 15:00:00 ET 51.9835 -40.6518 main 909 909 P_____________ AL041924 51.9835 -40.6518 EX 35 -4 25 97
1924239N14312 1924 30 NA NA NOT_NAMED 1924-09-06 18:00:00 ET 51.8000 -38.6000 35 hurdat_atl main 960 O_____________ hurdat_atl AL041924 51.8000 -38.6000 EX 35 -4 26 98

IBTrACS Databaseについて

本データベースは、米国NOAAが公開する1842年以降の世界の熱帯低気圧のベストトラックデータアーカイブInternational Best Track Archive for Climate Stewardship (IBTrACS)を、ウェブで閲覧しやすい形式に変換したものです。

最終更新日:2021-12-03